Martinsville, IL (62442)

10:59 AM CDT on July 05, 2015 (GMT -0500)
APRSWXNET | | Change Station
CLOSE
Current Station
Personal Weather Station
Location: Casey, IL
Elevation: 652 ft
Nearby Weather Stations
Active Advisory: Flood Warning

Elev 652 ft 39.30 °N, 87.98 °W | Updated 27 minutes ago

Clear
Clear
79 °F
Feels Like 81 °F
N
0
Wind Variable Wind from South
Gusts 6.0 mph

Today
High -- | Low -- °F
--% Chance of Precip.
Yesterday
High -- | Low -- °F
Precip. -- in
5:30 AM 8:21 PM
Waning Gibbous, 84% visible
Pressure 30.07 in
Visibility 7.0 miles
Clouds Scattered Clouds 2900 ft
Scattered Clouds 3600 ft
Heat Index 81 °F
Dew Point 67 °F
Humidity 66%
Rainfall in
Snow Depth Not available.
UV 8 out of 12
Pollen 3.90 out of 12
Air Quality Not available.
Flu Activity Not available.
METAR KMTO 051553Z AUTO 00000KT 7SM SCT029 SCT036 26/18 A3008 RMK AO2 SLP181 T02560183 TSNO $

More Conditions Fewer Conditions

Pressure 30.07 in
Visibility 7.0 miles
Clouds Scattered Clouds 2900 ft
Scattered Clouds 3600 ft
Heat Index 81 °F
Dew Point 67 °F
Humidity 66%
Rainfall in
Snow Depth Not available.
UV 8 out of 12
Pollen 3.90 out of 12
Air Quality Not available.
Flu Activity Not available.
METAR KMTO 051553Z AUTO 00000KT 7SM SCT029 SCT036 26/18 A3008 RMK AO2 SLP181 T02560183 TSNO $

More Conditions Fewer Conditions

10-Day Weather Forecast

×

Almanac

Astronomy

Jul. 05, 2015 Rise Set
Actual Time
Civil Twilight
Nautical Twilight
Astronomical Twilight
Moon
Length of Visible Light
Length of Day
Tomorrow will be .
, % of the Moon is Illuminated

Today's Extremes

State Highs State Lows

Community

WunderPhotos

Upload Photos

1,835,299 photos uploaded!

WunderBlogs® & News

Nearby

Air Quality

  Air Quality AQ Index Pollutant
Not available.

Snow Depth

Station Depth Elevation

Earthquake Activity

City Distance Mag. Time & Date
Minimum magnitude displayed is 2.5.

Coastal Water Temperatures

Place Temperature

Stations

Nearby Weather Stations

Station Location Temp. Windchill Dew Point Humidity Wind Precip. Elev Updated Type
                   
Flood Warning
Statement as of 11:58 AM EDT on July 05, 2015

The Flood Warning continues for
the Wabash River at Terre Haute.
* Until Saturday evening.
* At 11:00 am Sunday the stage was 20.6 feet.
* Flood stage is 14.0 feet.
* Minor flooding is occurring and minor flooding is forecast.
* Forecast... the river will continue to fall to below flood stage by
late Saturday morning.
* At 20.0 feet... extensive flooding behind Honey Creek levee as a
result of two unrepaired levee breaks from the April 2013 flood.
This levee is maintained by the Honey Creek levee association.
Flood waters behind the Honey Creek levee inundates most roads and
affects a few residences and/or commerical activies.


Lat... Lon 3960 8741 3945 8747 3932 8763 3930 8757
      3943 8740 3960 8736